首页
METAR-TAF:

METAR-TAF

机场 :

弗林特, 密歇根州, 美国

纬度: 42-58-00N, 经度: 083-44-58W, 海拔: 238米

当前天气观测

该预报发布于44分钟前的07:53 UTC
风速3节,风向
温度 -10°C
湿度 79%
气压 1035 hPa
能見度: 16.1公里
天空无云

METAR: KFNT 120753Z AUTO 17003KT 10SM CLR M10/M13 A3056 RMK AO2 SLP363 T11001133

时间: 03:37 (08:37 UTC)

预报

该预报发布于3小时和14分钟前的05:23 UTC
预报有效从12日的 06点(UTC)到 13日的 06点(UTC)
风速6节,风向西转西南
能見度: 10公里
天空无云
从 12日的 0800点(UTC)
风速5节,风向
能見度: 10公里
阴天层高于10000英尺
从 12日的 1500点(UTC)
风速11节,风向南转南东
能見度: 10公里
散云层高于3500英尺
多云层高于10000英尺
阴天层高于25000英尺
从 12日的 1900点(UTC)
风速14节,风向
能見度: 10公里
多云层高于10000英尺
多云层高于25000英尺
从 13日的 0000点(UTC)
风速13节,风向
能見度: 10公里
多云层高于25000英尺

TAF: KFNT 120523Z 1206/1306 24006KT P6SM SKC FM120800 17005KT P6SM OVC100 FM121500 16011KT P6SM SCT035 BKN100 OVC250 FM121900 17014KT P6SM BKN100 BKN250 FM130000 19013KT P6SM BKN250

超过4000个机场的气象观测和天气预报(METAR&TAF报告)。

可查询的气象台以黄色和红色小点在地图上表示。

将鼠标移到小点上方,可查看气象台名称。

然后点击查看天气观测和预报。

如需切换地图:点击带黑十字的绿色按钮放大地图;点击带横线的绿色按钮缩小地图;或者点击绿色箭头查看邻近地区的地图。


METAR-TAF: